createdAt,value
2023-01-09T00:00:02.007Z,97.98
2023-01-09T00:05:01.999Z,100.02
2023-01-09T00:10:01.980Z,100.02
2023-01-09T00:15:01.851Z,98.21
2023-01-09T00:20:02.147Z,99.93
2023-01-09T00:25:02.066Z,98.53
2023-01-09T00:30:01.834Z,98.19
2023-01-09T00:35:01.835Z,100.02
2023-01-09T00:40:01.708Z,98.19
2023-01-09T00:45:01.578Z,100.09
2023-01-09T00:50:01.659Z,100.11
2023-01-09T00:55:01.645Z,100.01
2023-01-09T01:00:01.437Z,98.29
2023-01-09T01:05:01.450Z,98.31
2023-01-09T01:10:02.024Z,97.93
2023-01-09T01:15:01.848Z,98.19
2023-01-09T01:20:01.956Z,98.33
2023-01-09T01:25:02.140Z,98.21
2023-01-09T01:30:01.928Z,97.92
2023-01-09T01:35:02.019Z,100.14
2023-01-09T01:40:02.093Z,98.24
2023-01-09T01:45:02.120Z,100.22
2023-01-09T01:50:01.381Z,100.06
2023-01-09T01:55:01.609Z,97.97
2023-01-09T02:00:02.222Z,97.99
2023-01-09T02:05:01.341Z,97.69
2023-01-09T02:10:01.803Z,98.19
2023-01-09T02:15:01.873Z,100.09
2023-01-09T02:20:01.639Z,100.21
2023-01-09T02:25:01.452Z,98.24
2023-01-09T02:30:01.581Z,100.11
2023-01-09T02:35:01.888Z,100.11
2023-01-09T02:40:01.561Z,98.53
2023-01-09T02:45:02.016Z,98.61
2023-01-09T02:50:02.007Z,98.52
2023-01-09T02:55:01.982Z,98.6
2023-01-09T03:00:02.056Z,98.24
2023-01-09T03:05:01.896Z,98.2
2023-01-09T03:10:01.695Z,98.78
2023-01-09T03:15:02.007Z,98.61
2023-01-09T03:20:02.148Z,100.24
2023-01-09T03:25:02.055Z,98.24
2023-01-09T03:30:01.964Z,98.35
2023-01-09T03:35:01.742Z,99.85
2023-01-09T03:40:01.784Z,99.63
2023-01-09T03:45:02.183Z,99.66
2023-01-09T03:50:02.296Z,99.66
2023-01-09T03:55:01.497Z,99.58
2023-01-09T04:00:02.112Z,99.51
2023-01-09T04:05:02.249Z,97.71
2023-01-09T04:10:01.668Z,98.72
2023-01-09T04:15:01.621Z,98.16
2023-01-09T04:20:02.156Z,96.23
2023-01-09T04:25:01.458Z,98.91
2023-01-09T04:30:02.444Z,95.96
2023-01-09T04:35:01.740Z,97.95
2023-01-09T04:40:01.661Z,97.95
2023-01-09T04:45:01.555Z,97
2023-01-09T04:50:01.959Z,96.95
2023-01-09T04:55:02.182Z,97.43
2023-01-09T05:00:02.213Z,98.02
2023-01-09T05:05:02.108Z,97.46
2023-01-09T05:10:01.592Z,97.3
2023-01-09T05:15:02.225Z,98.21
2023-01-09T05:20:01.579Z,97.76
2023-01-09T05:25:01.828Z,97.6
2023-01-09T05:30:01.564Z,97.14
2023-01-09T05:35:01.443Z,96.36
2023-01-09T05:40:02.093Z,95.54
2023-01-09T05:45:01.567Z,95.51
2023-01-09T05:50:02.104Z,95.76
2023-01-09T05:55:01.713Z,96.07
2023-01-09T06:00:01.511Z,96.68
2023-01-09T06:05:01.365Z,96.79
2023-01-09T06:10:01.340Z,96.8
2023-01-09T06:15:01.920Z,96.59
2023-01-09T06:20:02.357Z,96.23
2023-01-09T06:25:02.074Z,96.28
2023-01-09T06:30:02.234Z,96.38
2023-01-09T06:35:01.574Z,96.92
2023-01-09T06:40:01.990Z,96.86
2023-01-09T06:45:01.871Z,96.95
2023-01-09T06:50:02.158Z,96.34
2023-01-09T06:55:01.739Z,96.28
2023-01-09T07:00:02.111Z,96.59
2023-01-09T07:05:02.074Z,96.7
2023-01-09T07:10:01.548Z,96.81
2023-01-09T07:15:02.234Z,96.89
2023-01-09T07:20:02.228Z,97.47
2023-01-09T07:25:01.921Z,97.2
2023-01-09T07:30:01.664Z,97.31
2023-01-09T07:35:01.276Z,97.17
2023-01-09T07:40:02.021Z,97.21
2023-01-09T07:45:01.866Z,96.95
2023-01-09T07:50:01.995Z,97
2023-01-09T07:55:01.304Z,96.77
2023-01-09T08:00:01.693Z,96.48
2023-01-09T08:05:01.906Z,96.34
2023-01-09T08:10:02.248Z,95.83
2023-01-09T08:15:01.668Z,95.73
2023-01-09T08:20:01.259Z,95.36
2023-01-09T08:25:02.184Z,95.53
2023-01-09T08:30:01.817Z,94.77
2023-01-09T08:35:01.808Z,94.77
2023-01-09T08:40:02.132Z,95.09
2023-01-09T08:45:01.389Z,94.7
2023-01-09T08:50:01.732Z,94.79
2023-01-09T08:55:02.146Z,94.31
2023-01-09T09:00:01.304Z,94.35
2023-01-09T09:05:01.408Z,94.72
2023-01-09T09:10:01.787Z,94.8
2023-01-09T09:15:01.691Z,94.92
2023-01-09T09:20:02.112Z,94.92
2023-01-09T09:25:01.471Z,95.27
2023-01-09T09:30:01.878Z,95.13
2023-01-09T09:35:01.412Z,95.48
2023-01-09T09:40:13.489Z,95.75
2023-01-09T09:45:01.674Z,95.6
2023-01-09T09:50:02.085Z,95.54
2023-01-09T09:55:01.679Z,94.26
2023-01-09T10:00:01.895Z,94.22
2023-01-09T10:05:02.126Z,93.26
2023-01-09T10:10:01.510Z,93.04
2023-01-09T10:15:01.905Z,92.29
2023-01-09T10:20:01.484Z,92.27
2023-01-09T10:25:02.105Z,91.97
2023-01-09T10:30:01.379Z,90.97
2023-01-09T10:35:01.947Z,90.65
2023-01-09T10:40:02.229Z,89.84
2023-01-09T10:45:01.363Z,88.52
2023-01-09T10:50:02.184Z,88.36
2023-01-09T10:55:02.241Z,88.2
2023-01-09T11:00:01.667Z,88.92
2023-01-09T11:05:02.005Z,88.18
2023-01-09T11:10:02.201Z,88.21
2023-01-09T11:15:01.410Z,88.36
2023-01-09T11:20:01.859Z,88.3
2023-01-09T11:25:02.108Z,88.52
2023-01-09T11:30:01.499Z,88.46
2023-01-09T11:35:01.306Z,88.99
2023-01-09T11:40:02.447Z,87.95
2023-01-09T11:45:01.537Z,87.62
2023-01-09T11:50:02.242Z,87.39
2023-01-09T11:55:01.332Z,87.65
2023-01-09T12:00:01.607Z,88.64
2023-01-09T12:05:02.150Z,89.29
2023-01-09T12:10:01.725Z,88.71
2023-01-09T12:15:02.085Z,88.71
2023-01-09T12:20:01.394Z,88.38
2023-01-09T12:25:02.016Z,88.98
2023-01-09T12:30:01.823Z,88.71
2023-01-09T12:35:02.212Z,88.8
2023-01-09T12:40:01.607Z,87.3
2023-01-09T12:45:02.226Z,88.13
2023-01-09T12:50:01.900Z,88.43
2023-01-09T12:55:03.452Z,88.92
2023-01-09T13:00:02.366Z,88.23
2023-01-09T13:05:01.769Z,88.16
2023-01-09T13:10:01.634Z,87.99
2023-01-09T13:15:02.060Z,88.01
2023-01-09T13:20:02.252Z,87.49
2023-01-09T13:25:01.419Z,86.02
2023-01-09T13:30:02.035Z,86.27
2023-01-09T13:35:01.962Z,86.56
2023-01-09T13:40:01.509Z,86.75
2023-01-09T13:45:02.283Z,86.91
2023-01-09T13:50:01.520Z,87.72
2023-01-09T13:55:01.988Z,88.14
2023-01-09T14:00:02.243Z,87.84
2023-01-09T14:05:01.426Z,87.84
2023-01-09T14:10:02.036Z,87.94
2023-01-09T14:15:01.359Z,87.48
2023-01-09T14:20:02.099Z,88.23
2023-01-09T14:25:01.976Z,88.54
2023-01-09T14:30:01.710Z,88.69
2023-01-09T14:35:01.518Z,88.76
2023-01-09T14:40:01.346Z,88.9
2023-01-09T14:45:01.691Z,88.94
2023-01-09T14:50:02.275Z,89.69
2023-01-09T14:55:01.582Z,90.31
2023-01-09T15:00:02.151Z,90.71
2023-01-09T15:05:02.160Z,89.81
2023-01-09T15:10:02.157Z,90.09
2023-01-09T15:15:01.332Z,89.68
2023-01-09T15:20:02.033Z,90.2
2023-01-09T15:25:02.176Z,90.46
2023-01-09T15:30:01.322Z,91.13
2023-01-09T15:35:01.916Z,91.33
2023-01-09T15:40:02.272Z,90.62
2023-01-09T15:45:01.885Z,90.74
2023-01-09T15:50:02.028Z,90.28
2023-01-09T15:55:01.774Z,90.3
2023-01-09T16:00:01.461Z,89.91
2023-01-09T16:05:01.610Z,89.67
2023-01-09T16:10:02.019Z,90.61
2023-01-09T16:15:01.408Z,90.81
2023-01-09T16:20:02.057Z,90.69
2023-01-09T16:25:01.392Z,90.72
2023-01-09T16:30:02.247Z,90.84
2023-01-09T16:35:03.787Z,90.86
2023-01-09T16:40:01.670Z,90.79
2023-01-09T16:45:02.034Z,90.25
2023-01-09T16:50:01.265Z,90.85
2023-01-09T16:55:01.798Z,90.46
2023-01-09T17:00:02.140Z,90.62
2023-01-09T17:05:02.339Z,90.62
2023-01-09T17:10:01.269Z,90.78
2023-01-09T17:15:01.709Z,91.55
2023-01-09T17:20:02.192Z,91.96
2023-01-09T17:25:01.308Z,91.4
2023-01-09T17:30:05.669Z,91.39
2023-01-09T17:35:02.228Z,91.42
2023-01-09T17:40:01.572Z,91.3
2023-01-09T17:45:02.077Z,91.27
2023-01-09T17:50:01.811Z,91.18
2023-01-09T17:55:02.058Z,91.16
2023-01-09T18:00:01.578Z,91.43
2023-01-09T18:05:01.970Z,91.66
2023-01-09T18:10:02.263Z,91.98
2023-01-09T18:15:02.306Z,92.35
2023-01-09T18:20:01.661Z,92.36
2023-01-09T18:25:01.877Z,92.71
2023-01-09T18:30:05.220Z,93.29
2023-01-09T18:35:01.638Z,93.27
2023-01-09T18:40:01.917Z,93.3
2023-01-09T18:45:01.424Z,93.2
2023-01-09T18:50:01.980Z,92.89
2023-01-09T18:55:02.168Z,92.94
2023-01-09T19:00:01.498Z,92.64
2023-01-09T19:05:01.837Z,92.34
2023-01-09T19:10:02.335Z,92.62
2023-01-09T19:15:01.447Z,92.5
2023-01-09T19:20:02.059Z,92.59
2023-01-09T19:25:01.994Z,92.55
2023-01-09T19:30:02.175Z,92.18
2023-01-09T19:35:02.264Z,92.03
2023-01-09T19:40:01.466Z,92.11
2023-01-09T19:45:01.812Z,92.12
2023-01-09T19:50:04.690Z,91.97
2023-01-09T19:55:01.281Z,92.06
2023-01-09T20:00:02.145Z,92.24
2023-01-09T20:05:01.531Z,92.54
2023-01-09T20:10:01.992Z,92.56
2023-01-09T20:15:02.035Z,92.56
2023-01-09T20:20:01.458Z,93.16
2023-01-09T20:25:01.729Z,96.7
2023-01-09T20:30:01.485Z,98.42
2023-01-09T20:35:01.972Z,95.98
2023-01-09T20:40:01.401Z,98.94
2023-01-09T20:45:01.945Z,96.68
2023-01-09T20:50:02.197Z,96.77
2023-01-09T20:55:02.215Z,98.69
2023-01-09T21:00:01.447Z,98.83
2023-01-09T21:05:02.176Z,98.87
2023-01-09T21:10:01.381Z,98.84
2023-01-09T21:15:01.561Z,98.65
2023-01-09T21:20:02.078Z,99.18
2023-01-09T21:25:02.144Z,98.01
2023-01-09T21:30:01.294Z,99.05
2023-01-09T21:35:01.694Z,96.39
2023-01-09T21:40:02.117Z,99.08
2023-01-09T21:45:01.550Z,98.27
2023-01-09T21:50:01.811Z,99.18
2023-01-09T21:55:02.231Z,98.13
2023-01-09T22:00:02.201Z,99.94
2023-01-09T22:05:01.373Z,100.27
2023-01-09T22:10:01.978Z,98.56
2023-01-09T22:15:01.989Z,98.46
2023-01-09T22:20:01.300Z,98.91
2023-01-09T22:25:01.779Z,99.21
2023-01-09T22:30:02.066Z,99.07
2023-01-09T22:35:01.343Z,99.08
2023-01-09T22:40:01.351Z,99.08
2023-01-09T22:45:01.730Z,99.19
2023-01-09T22:50:02.245Z,99.28
2023-01-09T22:55:01.366Z,99.32
2023-01-09T23:00:01.716Z,98.92
2023-01-09T23:05:01.919Z,98.72
2023-01-09T23:10:02.062Z,98.76
2023-01-09T23:15:02.191Z,98.71
2023-01-09T23:20:01.351Z,98.87
2023-01-09T23:25:01.852Z,98.87
2023-01-09T23:30:01.312Z,98.56
2023-01-09T23:35:01.707Z,98.45
2023-01-09T23:40:01.938Z,98.27
2023-01-09T23:45:02.108Z,98.29
2023-01-09T23:50:01.353Z,98.55
2023-01-09T23:55:01.745Z,98.76
